createdAt,value
2019-04-14T00:00:35.979Z,37.90
2019-04-14T00:03:06.611Z,36.10
2019-04-14T00:05:35.919Z,33.10
2019-04-14T00:08:05.187Z,36.60
2019-04-14T00:10:33.637Z,32.30
2019-04-14T00:13:02.529Z,37.40
2019-04-14T00:15:38.865Z,32.43
2019-04-14T00:18:01.057Z,34.37
2019-04-14T00:20:29.405Z,36.57
2019-04-14T00:22:57.734Z,38.17
2019-04-14T00:25:26.231Z,33.93
2019-04-14T00:27:54.661Z,34.07
2019-04-14T00:30:23.670Z,36.93
2019-04-14T00:32:57.415Z,44.40
2019-04-14T00:35:30.045Z,34.83
2019-04-14T00:38:17.248Z,36.27
2019-04-14T00:40:53.910Z,38.20
2019-04-14T00:43:24.467Z,36.33
2019-04-14T00:45:56.816Z,35.60
2019-04-14T00:48:26.163Z,35.60
2019-04-14T00:50:54.470Z,36.73
2019-04-14T00:53:22.928Z,37.60
2019-04-14T00:55:51.380Z,37.03
2019-04-14T00:58:19.637Z,36.47
2019-04-14T01:00:47.968Z,37.90
2019-04-14T01:03:16.248Z,36.03
2019-04-14T01:05:45.787Z,34.90
2019-04-14T01:08:14.306Z,39.43
2019-04-14T01:10:43.293Z,36.97
2019-04-14T01:13:12.779Z,41.23
2019-04-14T01:15:53.665Z,39.03
2019-04-14T01:18:12.546Z,37.60
2019-04-14T01:20:40.990Z,37.30
2019-04-14T01:23:10.518Z,40.17
2019-04-14T01:25:39.038Z,39.00
2019-04-14T01:28:07.280Z,39.70
2019-04-14T01:30:35.540Z,39.43
2019-04-14T01:33:03.968Z,41.20
2019-04-14T01:35:33.446Z,38.03
2019-04-14T01:38:01.884Z,38.97
2019-04-14T01:40:31.333Z,39.47
2019-04-14T01:42:59.795Z,38.60
2019-04-14T01:45:28.154Z,39.80
2019-04-14T01:47:57.489Z,41.20
2019-04-14T01:50:36.615Z,41.03
2019-04-14T01:53:07.553Z,41.70
2019-04-14T01:55:46.515Z,41.83
2019-04-14T01:58:16.479Z,40.30
2019-04-14T02:01:02.229Z,41.17
2019-04-14T02:03:30.502Z,38.87
2019-04-14T02:05:58.763Z,40.97
2019-04-14T02:08:28.309Z,40.33
2019-04-14T02:10:56.661Z,39.30
2019-04-14T02:13:24.967Z,40.47
2019-04-14T02:15:53.232Z,41.03
2019-04-14T02:18:22.830Z,40.83
2019-04-14T02:20:51.304Z,40.73
2019-04-14T02:23:19.619Z,41.03
2019-04-14T02:25:49.248Z,38.77
2019-04-14T02:28:17.811Z,41.70
2019-04-14T02:30:56.787Z,44.80
2019-04-14T02:38:47.332Z,39.97
2019-04-14T02:41:24.626Z,41.33
2019-04-14T02:43:49.339Z,40.70
2019-04-14T02:46:16.996Z,42.03
2019-04-14T02:51:13.816Z,42.87
2019-04-14T02:56:16.445Z,37.83
2019-04-14T02:58:45.945Z,39.23
2019-04-14T03:01:14.713Z,43.73
2019-04-14T03:03:43.102Z,43.77
2019-04-14T03:06:12.615Z,43.30
2019-04-14T03:08:52.036Z,42.70
2019-04-14T03:11:11.760Z,42.83
2019-04-14T03:13:45.415Z,41.73
2019-04-14T03:16:19.762Z,41.80
2019-04-14T03:21:36.373Z,40.00
2019-04-14T03:24:12.739Z,40.37
2019-04-14T03:26:45.110Z,40.67
2019-04-14T03:29:21.710Z,42.90
2019-04-14T03:32:01.398Z,43.17
2019-04-14T03:39:15.309Z,42.90
2019-04-14T03:41:50.652Z,42.47
2019-04-14T03:44:25.282Z,42.43
2019-04-14T03:46:50.769Z,43.43
2019-04-14T03:51:50.262Z,41.70
2019-04-14T03:54:10.940Z,40.73
2019-04-14T03:56:48.933Z,40.30
2019-04-14T03:59:17.755Z,43.27
2019-04-14T04:01:47.757Z,43.23
2019-04-14T04:04:16.532Z,39.57
2019-04-14T04:06:44.887Z,40.30
2019-04-14T04:09:15.026Z,40.60
2019-04-14T04:11:43.515Z,41.80
2019-04-14T04:14:11.850Z,45.33
2019-04-14T04:16:44.201Z,39.83
2019-04-14T04:19:29.987Z,39.53
2019-04-14T04:21:59.901Z,40.53
2019-04-14T04:24:45.465Z,36.90
2019-04-14T04:27:15.796Z,39.13
2019-04-14T04:29:54.842Z,41.77
2019-04-14T04:32:25.425Z,38.43
2019-04-14T04:35:13.092Z,42.60
2019-04-14T04:37:52.129Z,38.70
2019-04-14T04:40:31.334Z,39.10
2019-04-14T04:42:59.611Z,40.50
2019-04-14T04:45:27.881Z,39.43
2019-04-14T04:47:56.275Z,43.07
2019-04-14T04:50:24.538Z,40.20
2019-04-14T04:52:53.921Z,40.93
2019-04-14T04:55:22.471Z,39.87
2019-04-14T04:57:50.749Z,37.63
2019-04-14T05:00:19.940Z,42.10
2019-04-14T05:02:48.535Z,39.80
2019-04-14T05:05:45.410Z,39.97
2019-04-14T05:08:13.693Z,38.90
2019-04-14T05:10:46.414Z,39.47
2019-04-14T05:13:16.124Z,37.77
2019-04-14T05:15:46.592Z,40.30
2019-04-14T05:18:16.191Z,39.37
2019-04-14T05:20:44.479Z,39.73
2019-04-14T05:23:12.769Z,40.27
2019-04-14T05:25:41.088Z,41.10
2019-04-14T05:28:09.385Z,39.27
2019-04-14T05:30:37.660Z,38.53
2019-04-14T05:33:05.917Z,40.50
2019-04-14T05:35:34.216Z,36.63
2019-04-14T05:38:02.505Z,37.07
2019-04-14T05:40:32.149Z,37.77
2019-04-14T05:43:00.757Z,38.57
2019-04-14T05:45:29.162Z,37.83
2019-04-14T05:47:57.472Z,37.87
2019-04-14T05:50:27.124Z,36.30
2019-04-14T05:52:55.805Z,36.03
2019-04-14T05:55:24.259Z,36.57
2019-04-14T05:57:52.673Z,37.40
2019-04-14T06:00:21.288Z,38.90
2019-04-14T06:02:50.618Z,34.30
2019-04-14T06:05:19.093Z,36.73
2019-04-14T06:07:47.379Z,36.17
2019-04-14T06:10:16.032Z,38.10
2019-04-14T06:12:44.316Z,35.63
2019-04-14T06:15:12.858Z,35.90
2019-04-14T06:17:41.234Z,37.50
2019-04-14T06:20:09.776Z,38.60
2019-04-14T06:22:38.070Z,35.47
2019-04-14T06:25:06.777Z,36.13
2019-04-14T06:27:36.072Z,36.00
2019-04-14T06:30:08.449Z,35.97
2019-04-14T06:32:46.614Z,36.53
2019-04-14T06:35:22.066Z,36.90
2019-04-14T06:37:54.632Z,34.80
2019-04-14T06:40:24.539Z,33.43
2019-04-14T06:42:52.868Z,33.80
2019-04-14T06:45:21.124Z,33.33
2019-04-14T06:47:49.391Z,35.30
2019-04-14T06:50:17.655Z,33.07
2019-04-14T06:52:45.961Z,31.80
2019-04-14T06:55:14.219Z,33.83
2019-04-14T06:57:42.495Z,33.43
2019-04-14T07:00:11.028Z,33.00
2019-04-14T07:02:39.306Z,33.17
2019-04-14T07:05:07.668Z,31.40
2019-04-14T07:07:35.936Z,30.33
2019-04-14T07:10:05.444Z,29.50
2019-04-14T07:12:33.704Z,30.53
2019-04-14T07:15:02.010Z,29.47
2019-04-14T07:17:30.386Z,29.83
2019-04-14T07:20:02.190Z,29.30
2019-04-14T07:22:28.650Z,29.00
2019-04-14T07:24:56.909Z,29.17
2019-04-14T07:27:25.266Z,28.23
2019-04-14T07:30:01.160Z,28.73
2019-04-14T07:32:31.093Z,26.90
2019-04-14T07:35:09.633Z,26.23
2019-04-14T07:37:45.321Z,26.67
2019-04-14T07:40:21.198Z,27.17
2019-04-14T07:43:03.085Z,26.57
2019-04-14T07:45:38.996Z,27.00
2019-04-14T07:48:25.003Z,26.80
2019-04-14T07:51:11.135Z,25.93
2019-04-14T07:53:41.042Z,24.37
2019-04-14T07:56:26.826Z,25.37
2019-04-14T07:58:59.713Z,24.27
2019-04-14T08:01:29.628Z,24.90
2019-04-14T08:04:02.503Z,25.20
2019-04-14T08:06:31.738Z,24.40
2019-04-14T08:09:00.021Z,25.47
2019-04-14T08:11:28.301Z,24.30
2019-04-14T08:13:56.581Z,23.27
2019-04-14T08:16:24.854Z,23.50
2019-04-14T08:18:53.114Z,22.27
2019-04-14T08:21:21.396Z,23.17
2019-04-14T08:23:49.666Z,21.70
2019-04-14T08:26:17.933Z,21.60
2019-04-14T08:28:46.289Z,21.67
2019-04-14T08:31:14.550Z,21.27
2019-04-14T08:33:42.920Z,22.50
2019-04-14T08:36:11.188Z,21.43
2019-04-14T08:38:39.468Z,22.73
2019-04-14T08:41:07.756Z,21.50
2019-04-14T08:43:40.602Z,19.60
2019-04-14T08:46:19.273Z,18.73
2019-04-14T08:48:49.245Z,20.53
2019-04-14T08:51:19.179Z,18.87
2019-04-14T08:53:51.495Z,19.57
2019-04-14T08:56:37.749Z,18.80
2019-04-14T08:59:23.860Z,18.70
2019-04-14T09:02:09.548Z,18.10
2019-04-14T09:04:45.364Z,18.13
2019-04-14T09:07:18.267Z,17.10
2019-04-14T09:09:57.024Z,16.07
2019-04-14T09:12:26.945Z,17.03
2019-04-14T09:14:57.203Z,16.83
2019-04-14T09:17:26.659Z,15.53
2019-04-14T09:19:54.945Z,17.30
2019-04-14T09:22:23.224Z,17.17
2019-04-14T09:24:51.499Z,17.73
2019-04-14T09:27:19.778Z,16.53
2019-04-14T09:29:48.061Z,16.20
2019-04-14T09:32:16.505Z,17.13
2019-04-14T09:34:44.773Z,15.47
2019-04-14T09:37:13.063Z,16.70
2019-04-14T09:39:41.329Z,16.47
2019-04-14T09:42:09.616Z,15.63
2019-04-14T09:44:37.903Z,16.40
2019-04-14T09:47:06.158Z,16.93
2019-04-14T09:49:34.441Z,15.13
2019-04-14T09:52:02.780Z,15.93
2019-04-14T09:54:31.056Z,16.27
2019-04-14T09:56:59.332Z,16.10
2019-04-14T09:59:27.626Z,16.03
2019-04-14T10:01:56.319Z,14.47
2019-04-14T10:04:24.589Z,15.10
2019-04-14T10:06:52.855Z,15.00
2019-04-14T10:09:21.122Z,16.30
2019-04-14T10:11:52.532Z,14.80
2019-04-14T10:14:19.405Z,15.63
2019-04-14T10:16:47.729Z,23.27
2019-04-14T10:19:16.071Z,16.20
2019-04-14T10:21:44.400Z,14.87
2019-04-14T10:24:12.630Z,15.27
2019-04-14T10:26:41.238Z,14.60
2019-04-14T10:29:09.511Z,15.50
2019-04-14T10:31:37.787Z,15.70
2019-04-14T10:34:06.070Z,15.73
2019-04-14T10:36:34.347Z,15.70
2019-04-14T10:39:03.731Z,14.80
2019-04-14T10:41:31.977Z,15.47
2019-04-14T10:44:00.316Z,16.27
2019-04-14T10:46:28.586Z,16.23
2019-04-14T10:48:56.884Z,15.80
2019-04-14T10:51:30.384Z,16.20
2019-04-14T10:53:55.157Z,17.67
2019-04-14T10:56:23.459Z,28.10
2019-04-14T10:58:51.737Z,15.40
2019-04-14T11:01:20.024Z,16.70
2019-04-14T11:03:48.318Z,15.07
2019-04-14T11:06:26.721Z,16.63
2019-04-14T11:08:54.987Z,15.37
2019-04-14T11:11:23.245Z,16.87
2019-04-14T11:13:51.510Z,15.17
2019-04-14T11:16:19.772Z,15.30
2019-04-14T11:18:48.055Z,16.40
2019-04-14T11:21:16.610Z,15.30
2019-04-14T11:23:44.912Z,15.37
2019-04-14T11:26:13.186Z,17.20
2019-04-14T11:28:41.538Z,14.77
2019-04-14T11:31:10.182Z,15.17
2019-04-14T11:33:56.234Z,16.03
2019-04-14T11:36:42.211Z,15.97
2019-04-14T11:39:12.362Z,15.80
2019-04-14T11:41:40.704Z,16.00
2019-04-14T11:44:09.169Z,16.87
2019-04-14T11:46:37.507Z,16.50
2019-04-14T11:49:05.883Z,16.30
2019-04-14T11:51:34.220Z,16.50
2019-04-14T11:54:02.479Z,15.43
2019-04-14T11:56:30.766Z,17.37
2019-04-14T11:58:59.012Z,16.00
2019-04-14T12:01:45.429Z,15.80
2019-04-14T12:04:21.482Z,16.60
2019-04-14T12:07:07.786Z,17.10
2019-04-14T12:09:37.715Z,17.83
2019-04-14T12:12:07.619Z,15.60
2019-04-14T12:14:35.884Z,16.03
2019-04-14T12:17:04.182Z,16.13
2019-04-14T12:19:32.450Z,16.17
2019-04-14T12:22:08.312Z,15.87
2019-04-14T12:24:30.751Z,14.87
2019-04-14T12:26:59.020Z,16.07
2019-04-14T12:29:28.259Z,15.77
2019-04-14T12:31:57.450Z,15.40
2019-04-14T12:34:25.829Z,16.93
2019-04-14T12:36:54.103Z,14.37
2019-04-14T12:39:23.804Z,15.63
2019-04-14T12:41:59.988Z,15.83
2019-04-14T12:44:32.686Z,14.83
2019-04-14T12:47:02.588Z,14.57
2019-04-14T12:49:38.659Z,14.27
2019-04-14T12:52:21.640Z,15.10
2019-04-14T12:54:47.625Z,15.50
2019-04-14T12:57:17.523Z,14.73
2019-04-14T12:59:45.862Z,13.90
2019-04-14T13:02:15.768Z,14.23
2019-04-14T13:04:44.047Z,14.30
2019-04-14T13:07:12.386Z,14.70
2019-04-14T13:09:40.683Z,15.97
2019-04-14T13:12:10.468Z,15.23
2019-04-14T13:14:38.861Z,16.00
2019-04-14T13:17:07.139Z,13.43
2019-04-14T13:19:35.416Z,15.20
2019-04-14T13:22:03.692Z,15.20
2019-04-14T13:24:31.983Z,15.23
2019-04-14T13:27:00.253Z,15.00
2019-04-14T13:29:28.535Z,15.43
2019-04-14T13:31:56.807Z,16.03
2019-04-14T13:34:25.088Z,14.80
2019-04-14T13:36:53.379Z,15.10
2019-04-14T13:39:21.656Z,15.13
2019-04-14T13:41:49.925Z,15.43
2019-04-14T13:44:18.222Z,15.53
2019-04-14T13:46:46.477Z,14.97
2019-04-14T13:49:14.763Z,14.87
2019-04-14T13:51:43.026Z,15.30
2019-04-14T13:54:11.319Z,16.70
2019-04-14T13:56:39.594Z,14.77
2019-04-14T13:59:07.859Z,16.50
2019-04-14T14:01:36.148Z,15.13
2019-04-14T14:04:04.562Z,16.37
2019-04-14T14:06:32.823Z,15.00
2019-04-14T14:09:01.106Z,15.00
2019-04-14T14:11:32.440Z,15.13
2019-04-14T14:14:02.538Z,14.93
2019-04-14T14:16:41.097Z,14.70
2019-04-14T14:19:13.446Z,14.67
2019-04-14T14:21:52.345Z,14.33
2019-04-14T14:27:09.976Z,12.60
2019-04-14T14:29:38.261Z,12.60
2019-04-14T14:32:08.249Z,13.70
2019-04-14T14:34:36.528Z,12.83
2019-04-14T14:37:04.793Z,12.53
2019-04-14T14:39:33.463Z,11.83
2019-04-14T14:42:01.754Z,11.07
2019-04-14T14:44:31.687Z,12.67
2019-04-14T14:47:01.596Z,10.60
2019-04-14T14:49:49.889Z,9.97
2019-04-14T14:52:21.872Z,10.07
2019-04-14T14:54:50.138Z,8.90
2019-04-14T14:57:18.417Z,9.60
2019-04-14T14:59:46.702Z,9.30
2019-04-14T15:02:14.983Z,8.63
2019-04-14T15:04:43.253Z,9.60
2019-04-14T15:07:11.532Z,9.27
2019-04-14T15:09:39.885Z,9.60
2019-04-14T15:12:08.163Z,9.00
2019-04-14T15:14:36.442Z,10.30
2019-04-14T15:17:08.300Z,9.57
2019-04-14T15:19:35.616Z,9.60
2019-04-14T15:22:04.155Z,9.90
2019-04-14T15:24:37.299Z,8.50
2019-04-14T15:27:05.654Z,9.50
2019-04-14T15:29:33.918Z,10.10
2019-04-14T15:32:02.195Z,10.23
2019-04-14T15:34:30.469Z,9.63
2019-04-14T15:36:58.938Z,9.57
2019-04-14T15:39:27.277Z,9.50
2019-04-14T15:41:55.524Z,9.43
2019-04-14T15:44:23.839Z,9.30
2019-04-14T15:46:52.098Z,10.13
2019-04-14T15:49:20.400Z,11.37
2019-04-14T15:51:48.665Z,9.60
2019-04-14T15:54:16.934Z,10.13
2019-04-14T15:57:04.813Z,11.17
2019-04-14T15:59:42.291Z,8.87
2019-04-14T16:02:12.210Z,9.60
2019-04-14T16:04:50.854Z,9.70
2019-04-14T16:07:26.285Z,9.60
2019-04-14T16:10:01.726Z,10.03
2019-04-14T16:12:34.169Z,9.87
2019-04-14T16:15:06.738Z,9.93
2019-04-14T16:17:39.587Z,9.70
2019-04-14T16:20:09.726Z,9.77
2019-04-14T16:22:39.059Z,9.60
2019-04-14T16:25:07.626Z,10.20
2019-04-14T16:27:37.612Z,10.87
2019-04-14T16:30:07.804Z,11.03
2019-04-14T16:32:52.918Z,11.40
2019-04-14T16:35:22.863Z,11.20
2019-04-14T16:37:51.137Z,11.13
2019-04-14T16:40:19.518Z,10.60
2019-04-14T16:42:47.771Z,10.70
2019-04-14T16:45:17.602Z,11.70
2019-04-14T16:47:45.862Z,10.63
2019-04-14T16:50:14.210Z,10.10
2019-04-14T16:52:47.144Z,9.80
2019-04-14T16:55:17.103Z,11.20
2019-04-14T16:57:49.965Z,11.03
2019-04-14T17:02:56.825Z,9.83
2019-04-14T17:05:25.087Z,9.63
2019-04-14T17:07:53.778Z,9.43
2019-04-14T17:10:22.319Z,9.50
2019-04-14T17:12:55.536Z,9.43
2019-04-14T17:15:40.468Z,9.90
2019-04-14T17:18:28.547Z,9.17
2019-04-14T17:21:14.585Z,10.33
2019-04-14T17:23:47.342Z,9.77
2019-04-14T17:26:35.310Z,9.20
2019-04-14T17:29:10.960Z,10.57
2019-04-14T17:31:58.739Z,10.23
2019-04-14T17:34:31.470Z,10.27
2019-04-14T17:37:10.203Z,9.90
2019-04-14T17:39:40.067Z,10.53
2019-04-14T17:42:28.308Z,9.77
2019-04-14T17:45:04.191Z,10.70
2019-04-14T17:47:40.113Z,10.17
2019-04-14T17:50:10.173Z,10.57
2019-04-14T17:52:42.977Z,13.17
2019-04-14T17:55:12.889Z,10.70
2019-04-14T17:57:58.968Z,11.63
2019-04-14T18:00:31.833Z,11.83
2019-04-14T18:03:04.161Z,10.87
2019-04-14T18:05:49.946Z,9.33
2019-04-14T18:08:28.411Z,9.73
2019-04-14T18:11:06.978Z,9.23
2019-04-14T18:13:36.998Z,10.00
2019-04-14T18:16:23.456Z,9.70
2019-04-14T18:19:02.388Z,8.40
2019-04-14T18:21:30.649Z,10.17
2019-04-14T18:23:59.060Z,9.13
2019-04-14T18:26:27.314Z,8.80
2019-04-14T18:28:59.914Z,8.33
2019-04-14T18:31:32.892Z,8.50
2019-04-14T18:34:12.492Z,8.23
2019-04-14T18:37:00.503Z,7.40
2019-04-14T18:39:42.717Z,7.23
2019-04-14T18:45:12.585Z,7.03
2019-04-14T18:47:51.472Z,7.87
2019-04-14T18:50:37.819Z,8.40
2019-04-14T18:53:07.779Z,7.40
2019-04-14T18:55:47.001Z,7.47
2019-04-14T18:58:33.276Z,7.17
2019-04-14T19:01:18.859Z,7.50
2019-04-14T19:03:47.917Z,7.90
2019-04-14T19:06:16.168Z,8.57
2019-04-14T19:08:44.835Z,8.40
2019-04-14T19:11:15.170Z,7.87
2019-04-14T19:13:45.262Z,8.00
2019-04-14T19:16:15.292Z,7.87
2019-04-14T19:18:45.210Z,7.80
2019-04-14T19:21:15.169Z,13.80
2019-04-14T19:23:46.303Z,8.27
2019-04-14T19:26:13.562Z,7.50
2019-04-14T19:28:41.839Z,6.77
2019-04-14T19:31:10.238Z,6.77
2019-04-14T19:33:38.501Z,7.20
2019-04-14T19:36:06.788Z,6.57
2019-04-14T19:38:35.048Z,6.90
2019-04-14T19:41:03.328Z,7.07
2019-04-14T19:43:31.607Z,6.70
2019-04-14T19:45:59.883Z,6.10
2019-04-14T19:48:28.212Z,5.90
2019-04-14T19:50:56.656Z,5.83
2019-04-14T19:53:24.952Z,7.00
2019-04-14T19:55:53.254Z,7.20
2019-04-14T19:58:21.572Z,6.67
2019-04-14T20:00:49.887Z,7.00
2019-04-14T20:03:18.148Z,6.70
2019-04-14T20:05:46.409Z,6.13
2019-04-14T20:08:14.703Z,6.60
2019-04-14T20:10:42.988Z,5.90
2019-04-14T20:13:11.230Z,6.97
2019-04-14T20:15:57.318Z,6.70
2019-04-14T20:18:43.403Z,6.33
2019-04-14T20:21:29.742Z,5.87
2019-04-14T20:24:08.557Z,7.00
2019-04-14T20:26:38.475Z,6.00
2019-04-14T20:29:10.854Z,6.67
2019-04-14T20:31:40.766Z,6.00
2019-04-14T20:34:09.049Z,8.90
2019-04-14T20:36:37.338Z,11.37
2019-04-14T20:39:09.284Z,6.27
2019-04-14T20:41:37.631Z,6.10
2019-04-14T20:44:05.908Z,6.23
2019-04-14T20:46:34.168Z,6.67
2019-04-14T20:49:02.463Z,5.80
2019-04-14T20:51:30.734Z,5.87
2019-04-14T20:53:59.064Z,5.13
2019-04-14T20:56:27.533Z,6.13
2019-04-14T20:58:55.790Z,5.57
2019-04-14T21:01:25.736Z,5.37
2019-04-14T21:04:12.028Z,5.80
2019-04-14T21:06:44.790Z,6.30
2019-04-14T21:09:14.707Z,6.53
2019-04-14T21:11:53.811Z,5.87
2019-04-14T21:14:40.084Z,5.73
2019-04-14T21:17:10.087Z,6.17
2019-04-14T21:19:45.956Z,5.60
2019-04-14T21:22:21.821Z,5.93
2019-04-14T21:24:51.759Z,6.10
2019-04-14T21:27:21.646Z,6.53
2019-04-14T21:29:51.664Z,5.80
2019-04-14T21:32:21.602Z,5.30
2019-04-14T21:35:03.575Z,5.73
2019-04-14T21:37:42.410Z,11.17
2019-04-14T21:40:17.909Z,5.80
2019-04-14T21:42:46.306Z,5.47
2019-04-14T21:45:14.660Z,5.67
2019-04-14T21:47:42.928Z,6.30
2019-04-14T21:50:11.568Z,5.37
2019-04-14T21:52:49.648Z,6.10
2019-04-14T21:55:17.174Z,5.93
2019-04-14T21:57:47.089Z,5.83
2019-04-14T22:00:35.069Z,6.37
2019-04-14T22:03:19.831Z,6.03
2019-04-14T22:05:52.695Z,5.90
2019-04-14T22:08:28.668Z,6.07
2019-04-14T22:10:58.575Z,6.10
2019-04-14T22:13:26.890Z,6.40
2019-04-14T22:15:55.157Z,6.70
2019-04-14T22:18:23.410Z,6.40
2019-04-14T22:20:51.738Z,7.00
2019-04-14T22:23:19.938Z,6.20
2019-04-14T22:25:48.224Z,6.70
2019-04-14T22:28:16.492Z,7.00
2019-04-14T22:30:44.750Z,6.57
2019-04-14T22:33:13.021Z,6.17
2019-04-14T22:35:41.287Z,7.10
2019-04-14T22:38:09.572Z,5.90
2019-04-14T22:40:37.867Z,6.60
2019-04-14T22:43:06.086Z,6.10
2019-04-14T22:45:34.994Z,6.60
2019-04-14T22:48:03.245Z,6.60
2019-04-14T22:50:31.553Z,6.47
2019-04-14T22:52:59.866Z,7.07
2019-04-14T22:55:28.129Z,7.20
2019-04-14T22:57:56.447Z,7.50
2019-04-14T23:00:26.780Z,7.30
2019-04-14T23:03:02.123Z,8.17
2019-04-14T23:05:49.802Z,7.60
2019-04-14T23:08:19.706Z,6.90
2019-04-14T23:11:05.666Z,6.83
2019-04-14T23:13:47.518Z,7.00
2019-04-14T23:16:26.093Z,8.73
2019-04-14T23:19:01.879Z,7.87
2019-04-14T23:21:31.777Z,7.53
2019-04-14T23:24:07.408Z,8.20
2019-04-14T23:26:35.664Z,7.70
2019-04-14T23:29:03.932Z,7.70
2019-04-14T23:31:32.183Z,7.80
2019-04-14T23:34:00.454Z,8.50
2019-04-14T23:36:28.728Z,7.90
2019-04-14T23:38:56.992Z,7.67
2019-04-14T23:41:25.330Z,8.17
2019-04-14T23:43:54.020Z,8.50
2019-04-14T23:46:22.258Z,7.20
2019-04-14T23:48:50.543Z,8.43
2019-04-14T23:51:18.810Z,9.00
2019-04-14T23:53:47.080Z,15.60
2019-04-14T23:56:15.336Z,9.50
2019-04-14T23:58:43.599Z,8.50
